createdAt,value
2018-01-11T00:02:24.385Z,8.57
2018-01-11T00:04:53.835Z,8.45
2018-01-11T00:07:22.394Z,8.37
2018-01-11T00:09:54.346Z,8.23
2018-01-11T00:12:22.606Z,8.21
2018-01-11T00:14:53.771Z,8.29
2018-01-11T00:17:21.778Z,8.23
2018-01-11T00:19:53.115Z,8.28
2018-01-11T00:22:21.506Z,8.27
2018-01-11T00:24:54.830Z,8.27
2018-01-11T00:27:22.852Z,8.37
2018-01-11T00:29:54.005Z,8.28
2018-01-11T00:32:22.028Z,8.29
2018-01-11T00:34:53.173Z,8.35
2018-01-11T00:37:21.205Z,8.27
2018-01-11T00:39:52.483Z,8.15
2018-01-11T00:42:20.510Z,8.20
2018-01-11T00:44:52.079Z,8.41
2018-01-11T00:47:20.109Z,8.46
2018-01-11T00:49:51.715Z,8.45
2018-01-11T00:52:19.753Z,8.33
2018-01-11T00:54:52.464Z,8.39
2018-01-11T00:57:20.484Z,8.37
2018-01-11T00:59:51.872Z,8.32
2018-01-11T01:02:19.920Z,8.33
2018-01-11T01:04:52.851Z,8.32
2018-01-11T01:07:21.116Z,8.26
2018-01-11T01:09:52.336Z,8.29
2018-01-11T01:12:20.398Z,8.36
2018-01-11T01:14:51.644Z,8.35
2018-01-11T01:17:19.884Z,8.36
2018-01-11T01:19:52.858Z,8.31
2018-01-11T01:22:20.832Z,8.35
2018-01-11T01:24:55.285Z,8.42
2018-01-11T01:27:23.420Z,8.38
2018-01-11T01:29:54.371Z,8.30
2018-01-11T01:32:22.408Z,8.30
2018-01-11T01:34:53.756Z,8.22
2018-01-11T01:37:21.793Z,8.27
2018-01-11T01:39:52.931Z,8.52
2018-01-11T01:42:21.148Z,8.47
2018-01-11T01:44:52.930Z,8.38
2018-01-11T01:47:20.946Z,8.25
2018-01-11T01:49:55.334Z,8.34
2018-01-11T01:52:23.348Z,8.39
2018-01-11T01:54:52.969Z,8.30
2018-01-11T01:57:20.984Z,8.33
2018-01-11T01:59:52.869Z,8.37
2018-01-11T02:02:20.897Z,8.36
2018-01-11T02:04:55.250Z,8.33
2018-01-11T02:07:23.273Z,8.30
2018-01-11T02:09:53.463Z,8.15
2018-01-11T02:12:21.469Z,8.19
2018-01-11T02:14:52.648Z,8.18
2018-01-11T02:17:20.898Z,8.23
2018-01-11T02:19:55.254Z,8.24
2018-01-11T02:22:23.277Z,8.20
2018-01-11T02:24:52.942Z,8.28
2018-01-11T02:27:20.985Z,8.17
2018-01-11T02:29:53.153Z,8.09
2018-01-11T02:32:21.339Z,8.21
2018-01-11T02:34:52.370Z,8.13
2018-01-11T02:37:20.405Z,8.08
2018-01-11T02:42:21.563Z,8.09
2018-01-11T02:44:52.865Z,8.16
2018-01-11T02:47:21.282Z,8.23
2018-01-11T02:49:56.016Z,8.15
2018-01-11T02:52:25.803Z,8.11
2018-01-11T02:54:54.542Z,8.14
2018-01-11T02:57:22.596Z,8.25
2018-01-11T02:59:54.150Z,8.19
2018-01-11T03:02:22.554Z,8.23
2018-01-11T03:04:53.000Z,8.20
2018-01-11T03:07:21.040Z,8.22
2018-01-11T03:09:53.428Z,8.24
2018-01-11T03:12:21.465Z,8.13
2018-01-11T03:14:52.579Z,8.13
2018-01-11T03:17:20.628Z,8.07
2018-01-11T03:19:55.140Z,8.08
2018-01-11T03:22:23.273Z,8.07
2018-01-11T03:24:53.105Z,8.04
2018-01-11T03:27:21.132Z,8.03
2018-01-11T03:29:55.837Z,7.97
2018-01-11T03:32:23.871Z,8.11
2018-01-11T03:34:53.744Z,8.15
2018-01-11T03:37:22.321Z,8.11
2018-01-11T03:39:54.584Z,8.08
2018-01-11T03:42:22.621Z,8.05
2018-01-11T03:44:54.482Z,8.03
2018-01-11T03:47:22.683Z,8.00
2018-01-11T03:49:53.830Z,8.11
2018-01-11T03:52:21.852Z,8.20
2018-01-11T03:54:53.137Z,8.21
2018-01-11T03:57:21.171Z,8.18
2018-01-11T03:59:55.196Z,8.12
2018-01-11T04:02:23.385Z,8.04
2018-01-11T04:04:54.298Z,8.06
2018-01-11T04:07:22.307Z,8.11
2018-01-11T04:09:53.656Z,8.03
2018-01-11T04:12:21.690Z,8.11
2018-01-11T04:14:52.834Z,8.02
2018-01-11T04:17:20.839Z,7.92
2018-01-11T04:19:55.290Z,7.90
2018-01-11T04:22:24.428Z,7.94
2018-01-11T04:24:53.132Z,7.92
2018-01-11T04:27:21.456Z,7.89
2018-01-11T04:29:53.645Z,7.95
2018-01-11T04:32:21.641Z,7.77
2018-01-11T04:34:52.805Z,7.76
2018-01-11T04:37:20.839Z,7.90
2018-01-11T04:39:55.274Z,7.88
2018-01-11T04:42:23.608Z,7.92
2018-01-11T04:44:53.069Z,7.97
2018-01-11T04:47:21.280Z,7.96
2018-01-11T04:49:56.277Z,7.91
2018-01-11T04:52:24.569Z,7.88
2018-01-11T04:54:53.813Z,7.90
2018-01-11T04:57:22.025Z,7.89
2018-01-11T04:59:53.274Z,7.75
2018-01-11T05:02:21.280Z,7.74
2018-01-11T05:04:55.949Z,7.78
2018-01-11T05:07:24.478Z,7.82
2018-01-11T05:09:53.772Z,7.81
2018-01-11T05:12:21.801Z,7.87
2018-01-11T05:14:52.992Z,7.82
2018-01-11T05:17:21.006Z,7.78
2018-01-11T05:19:56.092Z,7.77
2018-01-11T05:22:24.117Z,7.88
2018-01-11T05:24:53.125Z,7.90
2018-01-11T05:27:21.168Z,7.86
2018-01-11T05:29:52.429Z,7.85
2018-01-11T05:32:20.453Z,7.84
2018-01-11T05:34:52.345Z,7.82
2018-01-11T05:37:20.462Z,7.93
2018-01-11T05:39:55.332Z,7.87
2018-01-11T05:42:23.364Z,7.86
2018-01-11T05:44:56.104Z,7.90
2018-01-11T05:47:24.135Z,7.91
2018-01-11T05:49:53.836Z,7.86
2018-01-11T05:52:21.886Z,7.86
2018-01-11T05:54:53.235Z,7.83
2018-01-11T05:57:21.280Z,7.86
2018-01-11T05:59:56.041Z,7.88
2018-01-11T06:02:24.081Z,7.87
2018-01-11T06:04:53.204Z,7.91
2018-01-11T06:07:21.417Z,7.87
2018-01-11T06:09:52.611Z,7.86
2018-01-11T06:12:20.616Z,7.92
2018-01-11T06:14:51.731Z,7.92
2018-01-11T06:17:19.742Z,7.85
2018-01-11T06:19:49.218Z,7.87
2018-01-11T06:22:18.780Z,7.88
2018-01-11T06:24:47.017Z,7.88
2018-01-11T06:27:20.594Z,7.75
2018-01-11T06:29:55.164Z,7.83
2018-01-11T06:32:23.781Z,7.87
2018-01-11T06:34:54.704Z,7.90
2018-01-11T06:37:22.735Z,7.88
2018-01-11T06:39:54.699Z,7.83
2018-01-11T06:42:22.693Z,7.86
2018-01-11T06:44:53.823Z,7.84
2018-01-11T06:47:21.873Z,7.83
2018-01-11T06:49:52.999Z,7.85
2018-01-11T06:52:21.224Z,7.81
2018-01-11T06:54:56.405Z,7.88
2018-01-11T06:57:24.720Z,7.87
2018-01-11T06:59:53.424Z,7.85
2018-01-11T07:02:21.597Z,7.90
2018-01-11T07:04:56.239Z,7.89
2018-01-11T07:07:24.263Z,7.88
2018-01-11T07:09:53.028Z,7.64
2018-01-11T07:12:21.050Z,7.75
2018-01-11T07:14:52.419Z,7.76
2018-01-11T07:17:20.675Z,7.94
2018-01-11T07:19:51.717Z,7.93
2018-01-11T07:22:19.740Z,7.85
2018-01-11T07:24:49.219Z,7.87
2018-01-11T07:27:19.149Z,7.93
2018-01-11T07:29:47.222Z,7.97
2018-01-11T07:32:21.024Z,8.06
2018-01-11T07:34:55.459Z,8.04
2018-01-11T07:37:23.995Z,8.04
2018-01-11T07:39:54.265Z,8.07
2018-01-11T07:42:22.268Z,8.08
2018-01-11T07:44:53.832Z,7.97
2018-01-11T07:47:21.879Z,8.02
2018-01-11T07:49:53.016Z,7.91
2018-01-11T07:52:21.053Z,7.86
2018-01-11T07:54:52.259Z,7.76
2018-01-11T07:57:20.332Z,7.67
2018-01-11T07:59:51.701Z,7.86
2018-01-11T08:02:19.850Z,7.86
2018-01-11T08:04:52.595Z,7.95
2018-01-11T08:07:20.776Z,7.94
2018-01-11T08:09:55.270Z,7.95
2018-01-11T08:12:24.121Z,8.00
2018-01-11T08:14:53.172Z,8.06
2018-01-11T08:17:21.660Z,8.02
2018-01-11T08:19:53.280Z,7.97
2018-01-11T08:22:21.421Z,7.97
2018-01-11T08:24:56.220Z,8.09
2018-01-11T08:27:24.264Z,8.13
2018-01-11T08:29:53.413Z,8.19
2018-01-11T08:32:21.729Z,8.12
2018-01-11T08:34:52.857Z,8.08
2018-01-11T08:37:20.894Z,8.03
2018-01-11T08:39:55.426Z,8.04
2018-01-11T08:42:23.632Z,7.97
2018-01-11T08:44:53.474Z,8.22
2018-01-11T08:47:21.572Z,8.06
2018-01-11T08:49:52.720Z,8.44
2018-01-11T08:52:20.824Z,8.60
2018-01-11T08:54:55.323Z,8.70
2018-01-11T08:57:23.348Z,8.86
2018-01-11T08:59:53.009Z,8.82
2018-01-11T09:02:21.057Z,9.00
2018-01-11T09:04:55.994Z,9.01
2018-01-11T09:07:24.813Z,9.02
2018-01-11T09:09:54.109Z,8.88
2018-01-11T09:12:22.093Z,9.00
2018-01-11T09:14:53.128Z,8.71
2018-01-11T09:17:21.354Z,8.90
2018-01-11T09:19:52.774Z,8.92
2018-01-11T09:22:20.785Z,8.92
2018-01-11T09:24:55.395Z,8.62
2018-01-11T09:27:23.441Z,8.98
2018-01-11T09:29:53.740Z,8.63
2018-01-11T09:32:22.037Z,8.99
2018-01-11T09:34:55.909Z,8.57
2018-01-11T09:37:23.913Z,8.41
2018-01-11T09:39:53.684Z,8.50
2018-01-11T09:42:21.703Z,8.94
2018-01-11T09:44:54.344Z,8.82
2018-01-11T09:47:22.383Z,8.82
2018-01-11T09:49:54.641Z,8.81
2018-01-11T09:52:22.792Z,9.06
2018-01-11T09:54:54.451Z,9.13
2018-01-11T09:57:22.704Z,9.25
2018-01-11T09:59:53.335Z,9.24
2018-01-11T10:02:21.826Z,9.54
2018-01-11T10:04:52.898Z,9.54
2018-01-11T10:07:21.024Z,8.96
2018-01-11T10:09:52.849Z,9.18
2018-01-11T10:12:20.880Z,9.30
2018-01-11T10:14:55.409Z,9.36
2018-01-11T10:17:23.545Z,9.29
2018-01-11T10:19:54.884Z,9.30
2018-01-11T10:22:22.920Z,9.07
2018-01-11T10:24:54.276Z,9.02
2018-01-11T10:27:22.292Z,9.18
2018-01-11T10:29:54.037Z,9.10
2018-01-11T10:32:22.061Z,9.12
2018-01-11T10:34:53.216Z,9.10
2018-01-11T10:37:21.229Z,9.13
2018-01-11T10:39:52.520Z,9.02
2018-01-11T10:42:20.654Z,8.97
2018-01-11T10:44:55.028Z,9.07
2018-01-11T10:47:23.036Z,9.16
2018-01-11T10:49:53.153Z,9.27
2018-01-11T10:52:21.188Z,9.28
2018-01-11T10:54:52.868Z,9.26
2018-01-11T10:57:20.905Z,8.88
2018-01-11T10:59:55.336Z,8.87
2018-01-11T11:02:29.295Z,9.01
2018-01-11T11:04:57.303Z,9.12
2018-01-11T11:07:25.322Z,9.19
2018-01-11T11:09:53.498Z,9.41
2018-01-11T11:12:21.522Z,9.47
2018-01-11T11:14:52.846Z,9.56
2018-01-11T11:17:20.885Z,9.62
2018-01-11T11:19:55.253Z,9.69
2018-01-11T11:22:23.377Z,9.72
2018-01-11T11:24:53.370Z,9.63
2018-01-11T11:27:21.408Z,9.73
2018-01-11T11:29:54.909Z,9.79
2018-01-11T11:32:22.933Z,9.81
2018-01-11T11:34:54.588Z,9.72
2018-01-11T11:37:22.764Z,9.89
2018-01-11T11:39:55.124Z,9.81
2018-01-11T11:42:23.787Z,9.96
2018-01-11T11:44:54.865Z,10.02
2018-01-11T11:47:22.882Z,10.07
2018-01-11T11:49:54.170Z,10.11
2018-01-11T11:52:22.196Z,10.00
2018-01-11T11:54:53.180Z,10.30
2018-01-11T11:57:21.195Z,10.47
2018-01-11T11:59:52.497Z,10.85
2018-01-11T12:02:20.518Z,10.94
2018-01-11T12:04:51.916Z,10.90
2018-01-11T12:07:19.940Z,11.24
2018-01-11T12:09:52.752Z,11.05
2018-01-11T12:12:21.053Z,10.85
2018-01-11T12:14:54.424Z,11.26
2018-01-11T12:17:22.720Z,11.14
2018-01-11T12:19:53.660Z,11.11
2018-01-11T12:22:22.177Z,11.28
2018-01-11T12:24:53.929Z,11.48
2018-01-11T12:27:21.961Z,12.17
2018-01-11T12:29:55.782Z,12.07
2018-01-11T12:32:23.800Z,12.03
2018-01-11T12:34:53.336Z,11.99
2018-01-11T12:37:22.144Z,12.03
2018-01-11T12:39:53.770Z,11.85
2018-01-11T12:42:21.857Z,10.98
2018-01-11T12:44:52.244Z,10.93
2018-01-11T12:47:20.306Z,11.08
2018-01-11T12:49:51.498Z,11.35
2018-01-11T12:52:19.767Z,11.78
2018-01-11T12:54:51.005Z,12.34
2018-01-11T12:57:19.024Z,11.69
2018-01-11T12:59:51.858Z,11.01
2018-01-11T13:02:19.977Z,10.51
2018-01-11T13:04:54.552Z,10.60
2018-01-11T13:07:22.544Z,11.03
2018-01-11T13:09:53.682Z,11.31
2018-01-11T13:12:21.851Z,12.07
2018-01-11T13:14:52.996Z,11.38
2018-01-11T13:17:21.304Z,11.47
2018-01-11T13:19:52.175Z,11.96
2018-01-11T13:22:20.204Z,12.21
2018-01-11T13:24:55.064Z,12.00
2018-01-11T13:27:23.237Z,10.95
2018-01-11T13:29:53.807Z,11.17
2018-01-11T13:32:22.125Z,11.40
2018-01-11T13:34:53.243Z,11.35
2018-01-11T13:37:21.528Z,10.61
2018-01-11T13:39:52.324Z,10.20
2018-01-11T13:42:20.613Z,10.48
2018-01-11T13:44:53.566Z,10.64
2018-01-11T13:47:21.668Z,10.73
2018-01-11T13:49:53.569Z,10.76
2018-01-11T13:52:21.601Z,10.28
2018-01-11T13:54:53.652Z,10.59
2018-01-11T13:57:21.929Z,10.63
2018-01-11T13:59:54.505Z,10.52
2018-01-11T14:02:22.562Z,10.49
2018-01-11T14:04:52.098Z,10.52
2018-01-11T14:07:20.149Z,10.28
2018-01-11T14:09:51.577Z,10.02
2018-01-11T14:12:19.885Z,9.93
2018-01-11T14:14:54.409Z,9.91
2018-01-11T14:17:22.466Z,10.31
2018-01-11T14:19:55.197Z,10.42
2018-01-11T14:22:23.356Z,10.62
2018-01-11T14:24:52.203Z,10.67
2018-01-11T14:27:21.583Z,10.69
2018-01-11T14:29:53.489Z,10.40
2018-01-11T14:32:21.527Z,10.61
2018-01-11T14:34:52.971Z,10.68
2018-01-11T14:37:21.174Z,10.65
2018-01-11T14:39:52.408Z,10.25
2018-01-11T14:42:20.595Z,10.03
2018-01-11T14:44:51.817Z,10.27
2018-01-11T14:47:19.840Z,10.41
2018-01-11T14:49:54.386Z,10.37
2018-01-11T14:52:22.409Z,10.42
2018-01-11T14:54:53.374Z,10.48
2018-01-11T14:57:21.417Z,10.52
2018-01-11T14:59:53.037Z,10.39
2018-01-11T15:02:21.068Z,10.41
2018-01-11T15:04:52.295Z,10.44
2018-01-11T15:07:20.349Z,10.55
2018-01-11T15:09:54.956Z,10.52
2018-01-11T15:12:23.001Z,10.51
2018-01-11T15:14:54.669Z,10.25
2018-01-11T15:17:22.704Z,10.19
2018-01-11T15:19:52.404Z,10.14
2018-01-11T15:22:20.457Z,10.07
2018-01-11T15:24:51.584Z,10.02
2018-01-11T15:27:19.637Z,10.08
2018-01-11T15:29:54.527Z,10.00
2018-01-11T15:32:22.543Z,9.95
2018-01-11T15:34:52.405Z,10.00
2018-01-11T15:37:21.154Z,9.90
2018-01-11T15:39:52.766Z,9.90
2018-01-11T15:42:21.297Z,9.85
2018-01-11T15:44:52.235Z,9.85
2018-01-11T15:47:20.401Z,9.87
2018-01-11T15:49:55.090Z,9.90
2018-01-11T15:52:23.383Z,9.85
2018-01-11T15:54:52.112Z,9.89
2018-01-11T15:57:20.492Z,9.89
2018-01-11T15:59:51.665Z,9.94
2018-01-11T16:02:19.682Z,9.96
2018-01-11T16:04:54.144Z,9.93
2018-01-11T16:07:22.258Z,9.90
2018-01-11T16:09:53.228Z,9.84
2018-01-11T16:12:21.905Z,9.85
2018-01-11T16:14:52.960Z,9.90
2018-01-11T16:17:21.012Z,9.84
2018-01-11T16:19:52.111Z,9.86
2018-01-11T16:22:20.144Z,9.76
2018-01-11T16:24:52.201Z,9.76
2018-01-11T16:27:20.244Z,9.75
2018-01-11T16:29:51.629Z,9.77
2018-01-11T16:32:19.676Z,9.69
2018-01-11T16:34:51.489Z,9.73
2018-01-11T16:37:19.585Z,9.69
2018-01-11T16:39:51.453Z,9.69
2018-01-11T16:42:19.468Z,9.58
2018-01-11T16:44:51.208Z,9.56
2018-01-11T16:47:19.217Z,9.64
2018-01-11T16:52:20.673Z,9.60
2018-01-11T16:54:55.580Z,9.60
2018-01-11T16:57:23.610Z,9.59
2018-01-11T16:59:52.985Z,9.56
2018-01-11T17:02:21.035Z,9.67
2018-01-11T17:04:52.076Z,9.59
2018-01-11T17:07:20.464Z,9.64
2018-01-11T17:09:51.502Z,9.66
2018-01-11T17:12:19.508Z,9.67
2018-01-11T17:17:20.732Z,9.68
2018-01-11T17:19:53.800Z,9.71
2018-01-11T17:22:21.805Z,9.65
2018-01-11T17:24:53.733Z,9.66
2018-01-11T17:27:21.794Z,9.58
2018-01-11T17:29:53.233Z,9.59
2018-01-11T17:32:21.729Z,9.63
2018-01-11T17:34:52.773Z,9.63
2018-01-11T17:37:20.796Z,9.54
2018-01-11T17:39:55.848Z,9.44
2018-01-11T17:42:23.858Z,9.51
2018-01-11T17:44:52.880Z,9.66
2018-01-11T17:47:21.070Z,9.68
2018-01-11T17:49:52.430Z,9.64
2018-01-11T17:52:20.452Z,9.69
2018-01-11T17:54:55.201Z,9.58
2018-01-11T17:57:23.233Z,9.44
2018-01-11T17:59:52.284Z,9.35
2018-01-11T18:02:20.603Z,9.40
2018-01-11T18:04:54.163Z,9.34
2018-01-11T18:07:22.182Z,9.43
2018-01-11T18:09:53.945Z,9.30
2018-01-11T18:12:21.991Z,9.35
2018-01-11T18:14:53.360Z,9.29
2018-01-11T18:17:21.389Z,9.25
2018-01-11T18:19:52.159Z,9.24
2018-01-11T18:22:20.660Z,9.26
2018-01-11T18:24:51.910Z,9.37
2018-01-11T18:27:19.952Z,9.33
2018-01-11T18:29:54.543Z,9.36
2018-01-11T18:32:22.568Z,9.32
2018-01-11T18:34:52.452Z,9.37
2018-01-11T18:37:20.466Z,9.29
2018-01-11T18:39:51.529Z,9.43
2018-01-11T18:42:19.552Z,9.51
2018-01-11T18:47:20.708Z,9.42
2018-01-11T18:49:51.952Z,9.27
2018-01-11T18:52:19.997Z,9.34
2018-01-11T18:54:54.421Z,9.32
2018-01-11T18:57:22.568Z,9.42
2018-01-11T18:59:52.209Z,9.39
2018-01-11T19:02:20.381Z,9.42
2018-01-11T19:04:55.106Z,9.40
2018-01-11T19:07:23.101Z,9.37
2018-01-11T19:09:52.682Z,9.42
2018-01-11T19:12:20.710Z,9.44
2018-01-11T19:14:53.600Z,9.35
2018-01-11T19:17:22.018Z,9.43
2018-01-11T19:19:53.403Z,9.34
2018-01-11T19:22:21.425Z,9.37
2018-01-11T19:24:53.025Z,9.31
2018-01-11T19:27:21.053Z,9.28
2018-01-11T19:29:52.404Z,9.33
2018-01-11T19:32:20.417Z,9.31
2018-01-11T19:34:52.228Z,9.42
2018-01-11T19:37:20.279Z,9.30
2018-01-11T19:39:51.508Z,9.30
2018-01-11T19:42:19.521Z,9.28
2018-01-11T19:44:52.537Z,9.26
2018-01-11T19:47:20.554Z,9.26
2018-01-11T19:49:55.212Z,9.25
2018-01-11T19:52:23.239Z,9.19
2018-01-11T19:54:52.604Z,9.19
2018-01-11T19:57:20.633Z,9.16
2018-01-11T19:59:52.005Z,9.19
2018-01-11T20:02:19.972Z,9.20
2018-01-11T20:04:54.452Z,9.19
2018-01-11T20:07:22.497Z,9.28
2018-01-11T20:09:52.112Z,9.22
2018-01-11T20:12:20.740Z,9.12
2018-01-11T20:14:52.082Z,9.05
2018-01-11T20:17:20.118Z,9.04
2018-01-11T20:19:54.591Z,9.08
2018-01-11T20:22:22.583Z,9.12
2018-01-11T20:24:52.215Z,9.10
2018-01-11T20:27:20.237Z,9.12
2018-01-11T20:29:52.063Z,9.03
2018-01-11T20:32:20.076Z,9.18
2018-01-11T20:34:54.517Z,9.11
2018-01-11T20:37:22.541Z,9.16
2018-01-11T20:39:53.485Z,9.10
2018-01-11T20:42:21.516Z,9.18
2018-01-11T20:44:52.843Z,9.12
2018-01-11T20:47:20.838Z,9.08
2018-01-11T20:49:52.007Z,9.07
2018-01-11T20:52:20.010Z,8.99
2018-01-11T20:54:54.585Z,8.90
2018-01-11T20:57:22.592Z,8.93
2018-01-11T20:59:52.353Z,8.94
2018-01-11T21:02:20.404Z,8.73
2018-01-11T21:04:51.726Z,8.86
2018-01-11T21:07:19.752Z,8.76
2018-01-11T21:09:54.117Z,8.70
2018-01-11T21:12:22.458Z,8.83
2018-01-11T21:14:54.053Z,8.77
2018-01-11T21:17:22.061Z,8.62
2018-01-11T21:19:53.758Z,8.72
2018-01-11T21:22:21.773Z,8.72
2018-01-11T21:24:53.111Z,8.70
2018-01-11T21:27:21.144Z,8.65
2018-01-11T21:29:52.456Z,8.62
2018-01-11T21:32:21.003Z,8.60
2018-01-11T21:34:54.744Z,8.70
2018-01-11T21:37:22.760Z,8.66
2018-01-11T21:39:52.357Z,8.44
2018-01-11T21:42:20.684Z,8.27
2018-01-11T21:44:52.444Z,8.44
2018-01-11T21:47:20.469Z,8.41
2018-01-11T21:49:54.574Z,8.43
2018-01-11T21:52:22.605Z,8.45
2018-01-11T21:54:52.300Z,8.40
2018-01-11T21:57:20.334Z,8.44
2018-01-11T21:59:55.235Z,8.40
2018-01-11T22:02:23.285Z,8.52
2018-01-11T22:04:52.331Z,8.48
2018-01-11T22:07:20.373Z,8.36
2018-01-11T22:09:55.176Z,8.33
2018-01-11T22:12:23.208Z,8.31
2018-01-11T22:14:52.597Z,8.38
2018-01-11T22:17:20.609Z,8.48
2018-01-11T22:19:51.836Z,8.54
2018-01-11T22:22:19.863Z,8.37
2018-01-11T22:24:51.620Z,8.37
2018-01-11T22:27:19.597Z,8.31
2018-01-11T22:29:50.857Z,8.36
2018-01-11T22:32:18.853Z,8.28
2018-01-11T22:34:48.407Z,8.28
2018-01-11T22:37:18.005Z,8.41
2018-01-11T22:39:46.024Z,8.38
2018-01-11T22:42:14.054Z,8.44
2018-01-11T22:44:42.157Z,8.41
2018-01-11T22:47:10.193Z,8.36
2018-01-11T22:49:38.206Z,8.39
2018-01-11T22:52:06.238Z,8.40
2018-01-11T22:54:34.288Z,8.35
2018-01-11T22:57:02.312Z,8.34
2018-01-11T22:59:30.348Z,8.32
2018-01-11T23:01:58.365Z,8.36
2018-01-11T23:04:26.506Z,8.38
2018-01-11T23:06:54.741Z,8.27
2018-01-11T23:09:22.793Z,8.30
2018-01-11T23:11:50.809Z,8.28
2018-01-11T23:14:18.825Z,8.29
2018-01-11T23:16:47.484Z,8.25
2018-01-11T23:19:15.508Z,8.35
2018-01-11T23:21:43.531Z,8.30
2018-01-11T23:24:11.563Z,8.30
2018-01-11T23:26:40.518Z,8.28
2018-01-11T23:29:09.164Z,8.21
2018-01-11T23:31:37.336Z,8.28
2018-01-11T23:34:05.356Z,8.31
2018-01-11T23:36:33.378Z,8.28
2018-01-11T23:39:01.402Z,8.20
2018-01-11T23:41:29.445Z,8.21
2018-01-11T23:43:57.461Z,8.20
2018-01-11T23:46:25.484Z,8.15
2018-01-11T23:48:53.635Z,8.10
2018-01-11T23:51:21.740Z,8.27
2018-01-11T23:53:49.756Z,8.30
2018-01-11T23:56:18.068Z,8.37
2018-01-11T23:58:46.102Z,8.38
